Time;durP1;ratioP1;P1;durP2;ratioP2;P2;SDS_P1;SDS_P2;PMS_P1;PMS_P2;Temp;Humidity;BMP_temperature;BMP_pressure;BME280_temperature;BME280_humidity;BME280_pressure;Samples;Min_cycle;Max_cycle;Signal;HPM_P1;HPM_P2
2021/01/05 00:01:36;;;;;;;4.25;3.78;;;4.10;84.60;;;;;;5091675;28;20385;-71
2021/01/05 00:04:01;;;;;;;4.05;3.65;;;4.10;84.60;;;;;;5093512;28;20050;-71
2021/01/05 00:06:27;;;;;;;4.80;4.00;;;4.10;84.60;;;;;;5091936;28;20096;-71
2021/01/05 00:08:53;;;;;;;3.58;3.28;;;4.10;84.70;;;;;;5091587;28;20032;-71
2021/01/05 00:11:18;;;;;;;4.30;3.80;;;4.10;84.60;;;;;;5092826;28;20445;-71
2021/01/05 00:13:44;;;;;;;3.90;3.50;;;4.10;84.50;;;;;;5091505;28;20648;-71
2021/01/05 00:16:10;;;;;;;4.25;3.85;;;4.10;84.60;;;;;;5092992;28;20032;-71
2021/01/05 00:18:36;;;;;;;4.20;3.65;;;4.10;84.70;;;;;;5091564;28;20081;-71
2021/01/05 00:21:01;;;;;;;3.90;3.47;;;4.20;84.70;;;;;;5091628;28;20028;-72
2021/01/05 00:23:27;;;;;;;4.43;3.80;;;4.20;84.60;;;;;;5091857;28;20024;-72
2021/01/05 00:25:52;;;;;;;3.75;3.22;;;4.20;84.60;;;;;;5092690;28;20467;-71
2021/01/05 00:28:18;;;;;;;4.80;4.10;;;4.20;84.50;;;;;;5091451;28;20035;-71
2021/01/05 00:30:44;;;;;;;3.95;3.50;;;4.20;84.30;;;;;;5091368;28;20439;-72
2021/01/05 00:33:09;;;;;;;5.80;4.20;;;4.20;84.40;;;;;;5091470;28;20028;-71
2021/01/05 00:35:37;;;;;;;5.18;3.75;;;4.20;84.50;;;;;;5091455;28;20024;-71
2021/01/05 00:38:04;;;;;;;4.78;4.18;;;4.20;84.40;;;;;;5092690;28;20126;-71
2021/01/05 00:40:30;;;;;;;4.82;4.28;;;4.20;84.20;;;;;;5092918;28;20360;-71
2021/01/05 00:42:56;;;;;;;4.78;4.25;;;4.10;84.20;;;;;;5093156;28;20032;-72
2021/01/05 00:45:31;;;;;;;6.57;4.65;;;4.10;84.30;;;;;;5092663;28;20054;-73
2021/01/05 00:47:58;;;;;;;5.85;4.65;;;4.10;84.20;;;;;;5092717;28;20158;-72
2021/01/05 00:50:23;;;;;;;4.72;4.22;;;4.10;84.40;;;;;;5092697;28;20039;-72
2021/01/05 00:52:50;;;;;;;6.10;4.78;;;4.10;84.40;;;;;;5092646;28;20024;-73
2021/01/05 00:55:16;;;;;;;5.28;4.25;;;4.10;84.40;;;;;;5091387;28;20036;-73
2021/01/05 00:57:43;;;;;;;5.72;4.55;;;4.10;84.30;;;;;;5092624;28;20097;-73
2021/01/05 01:00:20;;;;;;;5.50;4.30;;;4.20;84.30;;;;;;5092739;28;20036;-72
2021/01/05 01:02:50;;;;;;;5.70;4.60;;;4.20;84.30;;;;;;5094773;28;20028;-73
2021/01/05 01:05:16;;;;;;;7.18;4.60;;;4.10;84.20;;;;;;5094942;28;20031;-73
2021/01/05 01:07:42;;;;;;;5.95;4.75;;;4.10;84.10;;;;;;5094982;28;20460;-72
2021/01/05 01:10:08;;;;;;;6.00;4.50;;;4.10;84.30;;;;;;5095146;28;20082;-73
2021/01/05 01:12:34;;;;;;;6.35;5.00;;;4.10;84.30;;;;;;5096866;28;20043;-72
2021/01/05 01:15:00;;;;;;;5.85;4.53;;;4.10;84.10;;;;;;5094923;28;20020;-72
2021/01/05 01:17:27;;;;;;;6.10;4.65;;;4.00;84.30;;;;;;5096405;28;20490;-73
2021/01/05 01:19:52;;;;;;;7.25;5.03;;;4.00;84.30;;;;;;5096307;28;20036;-73
2021/01/05 01:22:21;;;;;;;5.38;4.53;;;4.00;84.30;;;;;;5094749;28;20501;-73
2021/01/05 01:24:47;;;;;;;5.45;4.55;;;4.00;84.40;;;;;;5095975;28;20357;-72
2021/01/05 01:27:13;;;;;;;6.78;5.05;;;4.00;84.50;;;;;;5095870;28;20063;-72
2021/01/05 01:29:38;;;;;;;7.28;5.22;;;4.00;84.40;;;;;;5095754;28;20028;-72
2021/01/05 01:32:04;;;;;;;6.50;4.90;;;4.00;84.40;;;;;;5094567;28;20073;-73
2021/01/05 01:34:30;;;;;;;7.13;5.13;;;4.00;84.40;;;;;;5095988;28;20028;-72
2021/01/05 01:37:05;;;;;;;6.68;4.97;;;4.00;84.50;;;;;;5094450;28;20024;-72
2021/01/05 01:39:32;;;;;;;5.28;4.43;;;4.00;84.60;;;;;;5094248;28;20061;-72
2021/01/05 01:42:00;;;;;;;6.18;4.72;;;4.10;84.50;;;;;;5094393;28;20044;-72
2021/01/05 01:44:29;;;;;;;5.68;4.70;;;4.00;84.40;;;;;;5094334;28;20020;-72
2021/01/05 01:46:58;;;;;;;6.50;5.15;;;4.00;84.50;;;;;;5094199;28;20066;-73
2021/01/05 01:49:24;;;;;;;5.93;4.80;;;4.10;84.50;;;;;;5096087;28;20104;-72
2021/01/05 01:51:52;;;;;;;6.03;4.55;;;4.10;84.50;;;;;;5094188;28;20024;-73
2021/01/05 01:54:43;;;;;;;5.05;4.10;;;4.10;84.50;;;;;;5094049;28;20035;-72
2021/01/05 01:57:45;;;;;;;4.53;4.05;;;4.10;84.50;;;;;;5095249;28;20085;-73
2021/01/05 02:00:20;;;;;;;5.60;4.55;;;4.10;84.40;;;;;;5095237;28;20054;-72
2021/01/05 02:03:23;;;;;;;4.95;4.05;;;4.10;84.30;;;;;;5093807;28;20032;-72
2021/01/05 02:06:03;;;;;;;6.07;4.65;;;4.20;84.30;;;;;;5093643;28;20047;-72
2021/01/05 02:08:32;;;;;;;5.18;4.20;;;4.20;84.20;;;;;;5095057;28;20107;-72
2021/01/05 02:11:31;;;;;;;5.75;4.53;;;4.10;84.30;;;;;;5094980;28;20540;-72
2021/01/05 02:14:00;;;;;;;6.28;4.65;;;4.10;84.30;;;;;;5093708;28;20058;-72
2021/01/05 02:16:53;;;;;;;5.93;4.60;;;4.10;84.30;;;;;;5093666;28;20372;-73
2021/01/05 02:19:54;;;;;;;5.88;4.40;;;4.10;84.30;;;;;;5065409;28;20031;-72
2021/01/05 02:22:41;;;;;;;6.40;4.75;;;4.10;84.50;;;;;;5094728;28;20024;-72
2021/01/05 02:25:37;;;;;;;5.95;4.95;;;4.10;84.40;;;;;;5094678;28;20028;-72
2021/01/05 02:28:04;;;;;;;5.63;4.60;;;4.10;84.30;;;;;;5095007;28;20028;-72
2021/01/05 02:30:44;;;;;;;6.97;4.57;;;4.20;84.40;;;;;;5093155;28;20085;-72
2021/01/05 02:33:32;;;;;;;6.85;5.15;;;4.20;84.40;;;;;;5094637;28;20543;-74
2021/01/05 02:36:07;;;;;;;8.75;5.05;;;4.20;84.30;;;;;;5093347;28;20161;-74
2021/01/05 02:38:51;;;;;;;7.03;5.55;;;4.20;84.40;;;;;;5093226;28;20475;-74
2021/01/05 02:41:41;;;;;;;6.00;4.55;;;4.20;84.40;;;;;;5094581;28;20596;-74
2021/01/05 02:44:22;;;;;;;6.10;4.95;;;4.20;84.50;;;;;;5094276;28;20035;-74
2021/01/05 02:47:35;;;;;;;5.47;4.68;;;4.20;84.40;;;;;;5094627;28;20032;-75
2021/01/05 02:50:09;;;;;;;7.95;5.18;;;4.20;84.30;;;;;;5090927;28;20129;-74
2021/01/05 02:53:12;;;;;;;7.05;5.13;;;4.20;84.30;;;;;;5094318;28;20107;-75
2021/01/05 02:55:57;;;;;;;6.13;5.27;;;4.20;84.10;;;;;;5092982;28;20071;-74
2021/01/05 02:58:58;;;;;;;6.68;5.20;;;4.20;84.10;;;;;;5094256;28;20028;-74
2021/01/05 03:01:29;;;;;;;7.63;5.50;;;4.20;84.20;;;;;;5093560;28;20052;-74
2021/01/05 03:03:56;;;;;;;5.85;4.55;;;4.20;84.20;;;;;;5094214;28;20135;-74
2021/01/05 03:06:30;;;;;;;7.65;5.80;;;4.20;84.10;;;;;;5092493;28;20020;-74
2021/01/05 03:09:33;;;;;;;6.32;5.22;;;4.20;84.00;;;;;;5092622;28;20051;-72
2021/01/05 03:12:10;;;;;;;6.97;5.55;;;4.20;84.00;;;;;;5093790;28;20120;-72
2021/01/05 03:14:53;;;;;;;6.53;5.43;;;4.20;84.10;;;;;;5094001;28;20527;-72
2021/01/05 03:17:44;;;;;;;7.25;5.28;;;4.20;84.10;;;;;;5092387;28;20491;-74
2021/01/05 03:20:29;;;;;;;7.20;5.40;;;4.20;84.10;;;;;;5093811;28;20035;-74
2021/01/05 03:23:00;;;;;;;7.07;5.40;;;4.20;84.20;;;;;;5093724;28;20332;-74
2021/01/05 03:25:30;;;;;;;6.45;4.90;;;4.20;84.10;;;;;;5091816;28;20148;-74
2021/01/05 03:27:59;;;;;;;6.97;5.20;;;4.20;84.10;;;;;;5093623;28;20038;-74
2021/01/05 03:30:44;;;;;;;7.85;4.97;;;4.20;84.10;;;;;;5092243;28;20118;-74
2021/01/05 03:33:11;;;;;;;7.13;5.72;;;4.20;84.70;;;;;;5093861;28;20023;-74
2021/01/05 03:35:37;;;;;;;6.53;4.97;;;4.10;84.10;;;;;;5092164;28;20179;-74
2021/01/05 03:38:03;;;;;;;6.25;4.75;;;4.10;84.10;;;;;;5092283;28;20097;-74
2021/01/05 03:40:29;;;;;;;8.52;6.05;;;4.20;84.20;;;;;;5092082;28;20028;-74
2021/01/05 03:42:55;;;;;;;6.85;5.07;;;4.20;84.10;;;;;;5093495;28;20046;-74
2021/01/05 03:45:27;;;;;;;7.82;5.97;;;4.20;84.30;;;;;;5091954;28;20486;-74
2021/01/05 03:47:53;;;;;;;7.50;5.72;;;4.20;84.20;;;;;;5092125;28;20103;-74
2021/01/05 03:50:19;;;;;;;6.97;5.47;;;4.20;84.20;;;;;;5093795;28;20054;-74
2021/01/05 03:52:45;;;;;;;8.35;6.20;;;4.20;84.20;;;;;;5093342;28;20024;-74
2021/01/05 03:55:13;;;;;;;8.48;6.15;;;4.20;84.00;;;;;;5091951;28;20548;-74
2021/01/05 03:57:38;;;;;;;7.85;6.18;;;4.10;84.00;;;;;;5093207;28;20059;-74
2021/01/05 04:00:07;;;;;;;8.77;5.70;;;4.10;84.10;;;;;;5092101;28;20454;-74
2021/01/05 04:02:32;;;;;;;10.30;6.53;;;4.10;84.30;;;;;;5092958;28;20024;-74
2021/01/05 04:04:58;;;;;;;8.48;6.03;;;4.10;84.30;;;;;;5091816;28;20504;-74
2021/01/05 04:07:23;;;;;;;11.00;6.93;;;4.10;84.30;;;;;;5091764;28;20028;-74
2021/01/05 04:09:50;;;;;;;9.95;6.25;;;4.20;84.30;;;;;;5093098;28;20107;-74
2021/01/05 04:12:16;;;;;;;8.45;5.65;;;4.20;84.40;;;;;;5091794;28;20474;-74
2021/01/05 04:14:41;;;;;;;7.35;5.57;;;4.20;84.40;;;;;;5091797;28;20055;-74
2021/01/05 04:17:07;;;;;;;7.45;5.65;;;4.20;84.40;;;;;;5093233;28;20032;-74
2021/01/05 04:19:33;;;;;;;7.97;6.05;;;4.20;84.30;;;;;;5088683;28;20039;-74
2021/01/05 04:21:59;;;;;;;9.02;5.93;;;4.20;84.20;;;;;;5091586;28;20024;-74
2021/01/05 04:24:24;;;;;;;7.95;5.68;;;4.20;84.20;;;;;;5091590;28;20459;-74
2021/01/05 04:26:50;;;;;;;7.35;5.57;;;4.20;84.30;;;;;;5092902;28;20395;-74
2021/01/05 04:29:16;;;;;;;10.07;6.07;;;4.20;84.30;;;;;;5091641;28;20035;-74
2021/01/05 04:31:43;;;;;;;10.20;6.28;;;4.20;84.30;;;;;;5091666;28;20024;-74
2021/01/05 04:34:10;;;;;;;9.15;6.78;;;4.20;84.90;;;;;;5093359;28;20020;-74
2021/01/05 04:36:36;;;;;;;8.75;6.50;;;4.20;84.50;;;;;;5096450;28;20028;-74
2021/01/05 04:39:03;;;;;;;9.77;6.97;;;4.10;84.40;;;;;;5097013;28;20061;-74
2021/01/05 04:41:38;;;;;;;10.85;7.03;;;4.10;84.50;;;;;;5095523;28;20077;-74
2021/01/05 04:44:04;;;;;;;8.98;6.72;;;4.10;84.60;;;;;;5096522;28;20059;-74
2021/01/05 04:46:46;;;;;;;10.30;6.85;;;4.10;84.80;;;;;;5096722;28;20067;-74
2021/01/05 04:49:46;;;;;;;10.05;7.00;;;4.00;84.70;;;;;;5096643;28;20024;-74
2021/01/05 04:52:17;;;;;;;10.00;6.43;;;4.00;84.80;;;;;;5086930;28;20032;-74
2021/01/05 04:54:50;;;;;;;9.40;6.97;;;4.00;84.90;;;;;;5096575;28;20028;-74
2021/01/05 04:57:18;;;;;;;9.82;7.03;;;4.10;84.90;;;;;;5096617;28;20046;-74
2021/01/05 04:59:56;;;;;;;10.23;6.85;;;4.10;84.90;;;;;;5095095;28;20024;-74
2021/01/05 05:02:28;;;;;;;8.70;6.57;;;4.10;84.90;;;;;;5096307;28;20379;-74
2021/01/05 05:05:13;;;;;;;8.80;5.95;;;4.10;84.80;;;;;;5096254;28;20028;-74
2021/01/05 05:07:58;;;;;;;9.32;6.07;;;4.10;84.80;;;;;;5088752;28;20047;-74
2021/01/05 05:10:36;;;;;;;8.18;6.00;;;4.10;84.70;;;;;;5096073;28;20063;-74
2021/01/05 05:13:20;;;;;;;8.93;6.07;;;4.10;84.70;;;;;;5096732;28;20047;-74
2021/01/05 05:16:01;;;;;;;8.82;6.28;;;4.20;84.80;;;;;;5094807;28;20024;-74
2021/01/05 05:18:35;;;;;;;10.00;6.13;;;4.10;84.60;;;;;;5096027;28;20020;-74
2021/01/05 05:21:26;;;;;;;9.52;6.38;;;4.10;84.70;;;;;;5096128;28;20037;-74
2021/01/05 05:24:03;;;;;;;8.80;6.40;;;4.10;84.70;;;;;;5096469;28;20038;-74
2021/01/05 05:26:32;;;;;;;9.38;6.72;;;4.10;84.80;;;;;;5095824;28;20024;-74
2021/01/05 05:29:14;;;;;;;10.25;6.93;;;4.00;84.80;;;;;;5096527;28;20050;-74
2021/01/05 05:31:40;;;;;;;9.75;7.00;;;4.00;84.90;;;;;;5094576;28;20054;-74
2021/01/05 05:34:22;;;;;;;8.93;6.40;;;4.00;85.00;;;;;;5095901;28;20028;-74
2021/01/05 05:37:23;;;;;;;9.95;6.53;;;4.00;85.70;;;;;;5094472;28;20056;-74
2021/01/05 05:40:07;;;;;;;9.38;6.63;;;4.00;85.10;;;;;;5094375;28;20035;-74
2021/01/05 05:42:44;;;;;;;;;;;4.00;85.10;;;;;;5094966;28;20032;-74
2021/01/05 05:45:15;;;;;;;9.85;6.40;;;4.00;85.10;;;;;;5094090;28;19908;-74
2021/01/05 05:48:01;;;;;;;10.30;7.28;;;4.00;85.10;;;;;;5093549;28;20016;-74
2021/01/05 05:51:02;;;;;;;9.43;7.07;;;4.00;85.20;;;;;;5095344;28;20047;-74
2021/01/05 05:53:46;;;;;;;9.98;6.72;;;4.00;85.40;;;;;;5074953;28;20390;-74
2021/01/05 05:56:18;;;;;;;10.00;6.32;;;4.00;85.40;;;;;;5094126;28;20019;-74
2021/01/05 05:58:53;;;;;;;9.98;6.78;;;4.00;85.30;;;;;;5095433;28;20024;-74
2021/01/05 06:01:25;;;;;;;10.00;6.53;;;4.10;85.40;;;;;;5094085;28;20031;-74
2021/01/05 06:03:52;;;;;;;9.00;6.32;;;4.00;85.30;;;;;;5093792;28;20020;-74
2021/01/05 06:06:19;;;;;;;10.85;7.03;;;4.10;85.40;;;;;;5093681;28;20055;-74
2021/01/05 06:08:45;;;;;;;9.05;5.97;;;4.10;85.30;;;;;;5093787;28;20024;-74
2021/01/05 06:11:11;;;;;;;8.88;6.00;;;4.10;85.30;;;;;;5094840;28;20655;-74
2021/01/05 06:13:36;;;;;;;8.60;6.20;;;4.10;85.30;;;;;;5094904;28;20127;-74
2021/01/05 06:16:02;;;;;;;9.55;6.85;;;4.20;85.30;;;;;;5093988;28;20100;-75
2021/01/05 06:18:28;;;;;;;8.60;6.00;;;4.20;85.20;;;;;;5094893;28;20039;-74
2021/01/05 06:20:53;;;;;;;7.40;5.47;;;4.20;85.70;;;;;;5095061;28;20032;-74
2021/01/05 06:23:19;;;;;;;8.88;6.45;;;4.20;85.20;;;;;;5094890;28;20032;-74
2021/01/05 06:25:47;;;;;;;9.52;6.47;;;4.20;85.10;;;;;;5093406;28;20032;-74
2021/01/05 06:28:14;;;;;;;9.48;6.32;;;4.20;85.00;;;;;;5095073;28;20355;-74
2021/01/05 06:30:40;;;;;;;8.02;5.78;;;4.20;85.00;;;;;;5094662;28;20020;-74
2021/01/05 06:33:06;;;;;;;9.85;6.93;;;4.20;85.00;;;;;;5093171;28;20127;-74
2021/01/05 06:35:32;;;;;;;10.07;6.68;;;4.20;84.90;;;;;;5094613;28;20090;-74
2021/01/05 06:37:57;;;;;;;10.18;7.15;;;4.20;84.90;;;;;;5094544;28;20035;-74
2021/01/05 06:40:25;;;;;;;9.15;6.43;;;4.20;85.00;;;;;;5094729;28;20533;-74
2021/01/05 06:42:51;;;;;;;11.88;7.82;;;4.20;85.10;;;;;;5094241;28;20119;-74
2021/01/05 06:45:27;;;;;;;11.48;7.35;;;4.20;85.10;;;;;;5093041;28;20024;-74
2021/01/05 06:47:54;;;;;;;9.02;6.28;;;4.20;85.10;;;;;;5094396;28;20123;-74
2021/01/05 06:50:21;;;;;;;10.27;6.78;;;4.20;85.10;;;;;;5094530;28;20071;-74
2021/01/05 06:52:47;;;;;;;10.65;7.05;;;4.20;85.00;;;;;;5094297;28;20019;-74
2021/01/05 06:55:13;;;;;;;10.50;7.38;;;4.20;85.00;;;;;;5094101;28;20017;-75
2021/01/05 06:57:39;;;;;;;9.40;6.35;;;4.20;85.10;;;;;;5094098;28;20078;-74
2021/01/05 07:00:07;;;;;;;9.73;6.85;;;4.20;85.00;;;;;;5091831;28;20067;-74
2021/01/05 07:02:33;;;;;;;10.60;7.20;;;4.30;85.10;;;;;;5092642;28;20024;-74
2021/01/05 07:04:58;;;;;;;9.60;6.95;;;4.30;85.00;;;;;;5092778;28;20074;-74
2021/01/05 07:07:24;;;;;;;11.43;6.75;;;4.30;85.00;;;;;;5094007;28;20020;-74
2021/01/05 07:09:50;;;;;;;11.02;6.85;;;4.30;85.00;;;;;;5093887;28;20024;-74
2021/01/05 07:12:15;;;;;;;8.27;6.10;;;4.30;85.00;;;;;;5092359;28;20391;-74
2021/01/05 07:14:41;;;;;;;11.73;7.75;;;4.30;84.90;;;;;;5092273;28;20020;-74
2021/01/05 07:17:06;;;;;;;10.57;6.93;;;4.30;84.90;;;;;;5092400;28;20128;-74
2021/01/05 07:19:32;;;;;;;11.63;7.45;;;4.30;84.90;;;;;;5092327;28;20020;-74
2021/01/05 07:21:58;;;;;;;12.07;7.68;;;4.30;84.90;;;;;;5093612;28;20126;-73
2021/01/05 07:24:23;;;;;;;11.05;7.32;;;4.40;85.00;;;;;;5092234;28;20115;-73
2021/01/05 07:26:50;;;;;;;13.30;8.32;;;4.40;84.90;;;;;;5093447;28;20034;-74
2021/01/05 07:29:19;;;;;;;10.77;7.82;;;4.40;84.90;;;;;;5093567;28;20099;-74
2021/01/05 07:31:45;;;;;;;11.60;7.38;;;4.40;84.90;;;;;;5093477;28;20032;-74
2021/01/05 07:34:12;;;;;;;11.52;7.55;;;4.40;85.00;;;;;;5093542;28;20063;-74
2021/01/05 07:36:41;;;;;;;11.18;7.47;;;4.40;84.90;;;;;;5092291;28;20032;-74
2021/01/05 07:39:22;;;;;;;12.00;7.00;;;4.40;84.90;;;;;;5092133;28;20429;-74
2021/01/05 07:41:49;;;;;;;12.07;7.70;;;4.40;84.90;;;;;;5093370;28;20038;-74
2021/01/05 07:44:16;;;;;;;11.38;7.22;;;4.40;84.90;;;;;;5091990;28;20034;-74
2021/01/05 07:46:43;;;;;;;11.57;7.10;;;4.40;85.00;;;;;;5093075;28;20035;-74
2021/01/05 07:49:09;;;;;;;12.88;7.95;;;4.40;84.90;;;;;;5093287;28;20523;-74
2021/01/05 07:51:35;;;;;;;11.50;7.20;;;4.40;84.90;;;;;;5093202;28;20019;-74
2021/01/05 07:54:00;;;;;;;13.07;8.07;;;4.50;85.00;;;;;;5091884;28;20486;-74
2021/01/05 07:56:26;;;;;;;13.05;8.10;;;4.50;84.90;;;;;;5091756;28;20020;-74
2021/01/05 07:58:52;;;;;;;12.27;7.88;;;4.50;84.80;;;;;;5093619;28;20032;-74
2021/01/05 08:01:17;;;;;;;10.20;7.13;;;4.50;84.80;;;;;;5091762;28;20055;-74
2021/01/05 08:03:43;;;;;;;11.80;7.90;;;4.50;84.80;;;;;;5091696;28;20031;-74
2021/01/05 08:06:10;;;;;;;10.43;7.20;;;4.50;84.90;;;;;;5092905;28;20507;-74
2021/01/05 08:08:35;;;;;;;12.23;8.02;;;4.50;84.90;;;;;;5092926;28;20023;-74
2021/01/05 08:11:01;;;;;;;12.50;8.48;;;4.50;84.70;;;;;;5096124;28;20484;-74
2021/01/05 08:13:27;;;;;;;12.05;8.38;;;4.50;84.70;;;;;;5098249;28;20383;-74
2021/01/05 08:15:52;;;;;;;10.80;7.35;;;4.40;84.70;;;;;;5098123;28;20066;-74
2021/01/05 08:18:18;;;;;;;12.43;8.10;;;4.40;84.90;;;;;;5098230;28;20028;-74
2021/01/05 08:20:44;;;;;;;11.90;8.18;;;4.40;84.80;;;;;;5098284;28;20039;-74
2021/01/05 08:23:10;;;;;;;12.40;8.23;;;4.40;84.70;;;;;;5099700;28;20034;-74
2021/01/05 08:25:35;;;;;;;11.93;8.43;;;4.40;84.70;;;;;;5100107;28;20050;-74
2021/01/05 08:28:02;;;;;;;13.18;9.38;;;4.40;84.80;;;;;;5099496;28;20463;-74
2021/01/05 08:30:33;;;;;;;11.80;8.45;;;4.40;84.70;;;;;;5099514;28;20468;-74
2021/01/05 08:33:05;;;;;;;11.85;8.00;;;4.40;84.90;;;;;;5099724;28;20031;-74
2021/01/05 08:35:31;;;;;;;14.45;9.25;;;4.40;84.90;;;;;;5099462;28;20407;-74
2021/01/05 08:37:58;;;;;;;12.30;8.93;;;4.40;84.80;;;;;;5099635;28;20027;-74
2021/01/05 08:40:29;;;;;;;14.25;8.45;;;4.40;84.70;;;;;;5099364;28;20035;-74
2021/01/05 08:42:56;;;;;;;11.02;8.05;;;4.40;84.70;;;;;;5097759;28;20035;-73
2021/01/05 08:45:22;;;;;;;14.57;8.55;;;4.50;84.80;;;;;;5097790;28;20031;-74
2021/01/05 08:47:48;;;;;;;12.98;8.57;;;4.50;84.70;;;;;;5097880;28;20016;-74
2021/01/05 08:50:17;;;;;;;14.05;8.70;;;4.50;84.70;;;;;;5099264;28;20023;-74
2021/01/05 08:52:43;;;;;;;9.90;7.30;;;4.50;84.70;;;;;;5099206;28;20100;-74
2021/01/05 08:55:09;;;;;;;12.52;7.93;;;4.50;84.50;;;;;;5099288;28;20048;-74
2021/01/05 08:57:35;;;;;;;11.77;8.32;;;4.50;84.60;;;;;;5098096;28;20019;-75
2021/01/05 09:00:01;;;;;;;11.88;8.88;;;4.50;84.50;;;;;;5099311;28;20024;-74
2021/01/05 09:02:27;;;;;;;12.50;9.25;;;4.50;84.60;;;;;;5098077;28;20027;-74
2021/01/05 09:04:52;;;;;;;13.57;8.45;;;4.50;84.60;;;;;;5099033;28;20474;-74
2021/01/05 09:07:20;;;;;;;16.13;9.52;;;4.60;84.60;;;;;;5099099;28;20533;-74
2021/01/05 09:09:46;;;;;;;12.52;8.80;;;4.50;84.50;;;;;;5097690;28;20080;-73
2021/01/05 09:12:11;;;;;;;12.60;8.55;;;4.50;84.90;;;;;;5097473;28;20123;-74
2021/01/05 09:14:37;;;;;;;18.50;9.45;;;4.50;85.00;;;;;;5097660;28;20521;-74
2021/01/05 09:17:04;;;;;;;13.27;8.98;;;4.50;84.50;;;;;;5097534;28;20245;-74
2021/01/05 09:19:31;;;;;;;11.98;8.68;;;4.50;85.20;;;;;;5097482;28;20028;-75
2021/01/05 09:21:58;;;;;;;15.00;9.95;;;4.60;84.50;;;;;;5096298;28;20029;-75
2021/01/05 09:24:24;;;;;;;12.48;8.35;;;4.60;84.50;;;;;;5095683;28;20032;-74
2021/01/05 09:26:55;;;;;;;12.57;8.63;;;4.60;84.40;;;;;;5095530;28;20083;-74
2021/01/05 09:29:22;;;;;;;9.60;7.15;;;4.60;84.40;;;;;;5095758;28;20142;-74
2021/01/05 09:31:50;;;;;;;12.07;8.15;;;4.70;84.40;;;;;;5095420;28;20024;-74
2021/01/05 09:34:17;;;;;;;12.15;8.55;;;4.70;84.20;;;;;;5095617;28;20536;-74
2021/01/05 09:36:43;;;;;;;10.93;7.90;;;4.70;84.30;;;;;;5094046;28;20032;-75
2021/01/05 09:39:12;;;;;;;10.25;7.50;;;4.70;84.30;;;;;;5095621;28;20031;-74
2021/01/05 09:41:47;;;;;;;17.50;8.38;;;4.80;84.20;;;;;;5094028;28;20382;-74
2021/01/05 09:44:13;;;;;;;10.50;7.20;;;4.80;84.10;;;;;;5095758;28;20078;-74
2021/01/05 09:46:39;;;;;;;24.80;8.40;;;4.80;84.00;;;;;;5093731;28;20040;-73
2021/01/05 09:49:06;;;;;;;13.85;8.00;;;4.80;83.50;;;;;;5093914;28;20449;-74
2021/01/05 09:51:32;;;;;;;9.88;7.13;;;4.80;83.70;;;;;;5095307;28;20024;-73
2021/01/05 09:53:58;;;;;;;8.45;6.25;;;4.80;83.70;;;;;;5093968;28;20122;-74
2021/01/05 09:56:24;;;;;;;8.45;6.28;;;4.80;83.70;;;;;;5095642;28;20064;-74
2021/01/05 09:58:50;;;;;;;8.48;6.25;;;4.80;83.60;;;;;;5093633;28;20028;-73
2021/01/05 10:01:27;;;;;;;8.82;6.10;;;4.70;83.40;;;;;;5093577;28;20396;-73
2021/01/05 10:03:52;;;;;;;8.75;6.53;;;4.70;83.50;;;;;;5094848;28;20084;-73
2021/01/05 10:06:19;;;;;;;6.78;5.22;;;4.70;83.50;;;;;;5093406;28;20131;-74
2021/01/05 10:08:44;;;;;;;6.55;5.47;;;4.70;83.20;;;;;;5094776;28;20024;-73
2021/01/05 10:11:10;;;;;;;7.68;5.57;;;4.70;83.40;;;;;;5093338;28;20052;-74
2021/01/05 10:13:35;;;;;;;8.02;6.72;;;4.80;83.40;;;;;;5094302;28;20024;-74
2021/01/05 10:16:01;;;;;;;7.25;5.70;;;4.80;83.40;;;;;;5094631;28;20040;-74
2021/01/05 10:18:27;;;;;;;7.88;5.85;;;4.80;83.10;;;;;;5094335;28;20420;-73
2021/01/05 10:20:52;;;;;;;8.60;6.18;;;4.80;83.00;;;;;;5093053;28;20035;-74
2021/01/05 10:23:18;;;;;;;8.80;6.32;;;4.90;83.30;;;;;;5094505;28;20031;-74
2021/01/05 10:25:44;;;;;;;9.10;6.07;;;4.90;82.80;;;;;;5093247;28;20035;-74
2021/01/05 10:28:09;;;;;;;8.23;6.18;;;4.90;82.90;;;;;;5092910;28;20024;-75
2021/01/05 10:30:36;;;;;;;7.60;6.40;;;4.90;82.60;;;;;;5093232;28;20490;-74
2021/01/05 10:33:01;;;;;;;7.97;6.18;;;4.90;82.40;;;;;;5094618;28;20078;-74
2021/01/05 10:35:27;;;;;;;6.60;5.30;;;4.80;82.70;;;;;;5092759;28;20024;-74
2021/01/05 10:37:52;;;;;;;7.07;5.88;;;4.80;82.70;;;;;;5092824;28;20027;-73
2021/01/05 10:40:20;;;;;;;8.63;6.22;;;4.80;82.70;;;;;;5094284;28;20099;-74
2021/01/05 10:42:48;;;;;;;7.10;5.75;;;4.80;82.70;;;;;;5092646;28;20061;-74
2021/01/05 10:45:18;;;;;;;8.30;5.75;;;4.80;82.60;;;;;;5093772;28;20055;-73
2021/01/05 10:47:44;;;;;;;8.55;6.00;;;4.80;82.70;;;;;;5092387;28;20472;-74
2021/01/05 10:50:12;;;;;;;8.43;6.95;;;4.80;82.70;;;;;;5093759;28;20020;-74
2021/01/05 10:52:38;;;;;;;7.07;5.68;;;4.80;82.50;;;;;;5094211;28;20032;-74
2021/01/05 10:55:05;;;;;;;7.45;5.72;;;4.90;82.70;;;;;;5092514;28;20020;-74
2021/01/05 10:57:31;;;;;;;6.53;5.18;;;4.80;82.60;;;;;;5092564;28;20028;-73
2021/01/05 10:59:57;;;;;;;6.68;5.30;;;4.90;82.70;;;;;;5092469;28;20085;-73
2021/01/05 11:02:22;;;;;;;6.45;5.43;;;4.90;82.70;;;;;;5092458;28;20035;-74
2021/01/05 11:04:48;;;;;;;7.05;5.53;;;5.00;82.70;;;;;;5092336;28;20028;-73
2021/01/05 11:07:16;;;;;;;8.13;5.47;;;4.90;82.60;;;;;;5093496;28;20388;-74
2021/01/05 11:09:43;;;;;;;6.80;5.38;;;5.00;82.60;;;;;;5092177;28;20024;-74
2021/01/05 11:12:19;;;;;;;6.25;5.10;;;5.00;82.50;;;;;;5093205;28;20123;-73
2021/01/05 11:14:44;;;;;;;7.40;5.60;;;5.00;82.60;;;;;;5093229;28;20487;-73
2021/01/05 11:17:10;;;;;;;6.75;5.10;;;5.00;82.60;;;;;;5092000;28;20059;-74
2021/01/05 11:19:37;;;;;;;7.10;5.45;;;5.00;82.60;;;;;;5091945;28;20418;-74
2021/01/05 11:22:05;;;;;;;7.45;5.50;;;5.10;82.50;;;;;;5092194;28;20059;-73
2021/01/05 11:24:35;;;;;;;6.90;5.38;;;5.10;82.40;;;;;;5092068;28;20035;-74
2021/01/05 11:27:01;;;;;;;7.15;5.35;;;5.10;82.40;;;;;;5091779;28;20028;-73
2021/01/05 11:29:27;;;;;;;8.30;6.07;;;5.10;82.50;;;;;;5091657;28;20340;-73
2021/01/05 11:31:57;;;;;;;9.02;6.57;;;5.10;82.30;;;;;;5093308;28;20039;-74
2021/01/05 11:34:23;;;;;;;8.82;6.60;;;5.00;82.30;;;;;;5093511;28;20039;-74
2021/01/05 11:36:49;;;;;;;9.77;6.90;;;5.00;82.20;;;;;;5093430;28;20044;-74
2021/01/05 11:39:15;;;;;;;8.52;6.28;;;5.00;82.40;;;;;;5093249;28;20061;-74
2021/01/05 11:41:45;;;;;;;10.27;6.40;;;5.00;82.40;;;;;;5093165;28;20471;-75
2021/01/05 11:44:11;;;;;;;7.88;6.38;;;5.00;82.50;;;;;;5092802;28;20036;-74
2021/01/05 11:46:37;;;;;;;8.05;6.68;;;5.00;82.50;;;;;;5092527;28;20028;-73
2021/01/05 11:49:02;;;;;;;9.65;7.05;;;5.10;82.60;;;;;;5091664;28;20024;-75
2021/01/05 11:51:31;;;;;;;9.73;7.28;;;5.10;82.50;;;;;;5093150;28;20024;-74
2021/01/05 11:53:57;;;;;;;10.95;7.35;;;5.20;82.50;;;;;;5091720;28;20024;-73
2021/01/05 11:56:29;;;;;;;10.38;7.47;;;5.20;82.50;;;;;;5092865;28;20491;-75
2021/01/05 11:58:56;;;;;;;10.07;7.35;;;5.10;82.50;;;;;;5091671;28;20120;-74
2021/01/05 12:01:22;;;;;;;11.05;7.68;;;5.20;82.60;;;;;;5091617;28;20059;-74
2021/01/05 12:03:48;;;;;;;9.75;7.43;;;5.20;82.60;;;;;;5092941;28;20488;-74
2021/01/05 12:06:16;;;;;;;9.77;7.53;;;5.10;82.50;;;;;;5091632;28;20039;-74
2021/01/05 12:08:42;;;;;;;12.07;8.55;;;5.10;82.60;;;;;;5093033;28;20021;-74
2021/01/05 12:11:08;;;;;;;11.65;8.32;;;5.10;82.60;;;;;;5091304;28;20028;-74
2021/01/05 12:13:34;;;;;;;11.30;8.00;;;5.10;82.70;;;;;;5092644;28;20028;-74
2021/01/05 12:15:59;;;;;;;11.52;8.13;;;5.20;82.80;;;;;;5091265;28;20046;-74
2021/01/05 12:18:25;;;;;;;13.38;8.93;;;5.20;82.70;;;;;;5091389;28;20418;-74
2021/01/05 12:20:50;;;;;;;11.73;8.52;;;5.20;82.70;;;;;;5092792;28;20046;-74
2021/01/05 12:23:16;;;;;;;12.48;9.18;;;5.20;82.60;;;;;;5091472;28;20060;-74
2021/01/05 12:25:42;;;;;;;12.10;8.50;;;5.10;82.70;;;;;;5092579;28;20036;-74
2021/01/05 12:28:08;;;;;;;11.70;8.68;;;5.10;82.80;;;;;;5091230;28;20034;-74
2021/01/05 12:30:34;;;;;;;13.73;9.00;;;5.20;82.90;;;;;;5092410;28;20055;-74
2021/01/05 12:32:59;;;;;;;14.18;8.98;;;5.20;82.70;;;;;;5092784;28;20089;-74
2021/01/05 12:35:25;;;;;;;12.07;9.10;;;5.20;82.70;;;;;;5091293;28;20032;-74
2021/01/05 12:37:51;;;;;;;11.30;7.95;;;5.10;82.60;;;;;;5091350;28;20016;-74
2021/01/05 12:40:16;;;;;;;11.82;8.82;;;5.10;82.70;;;;;;5091282;28;20029;-74
2021/01/05 12:42:42;;;;;;;12.63;8.75;;;5.10;82.60;;;;;;5092534;28;20435;-74
2021/01/05 12:45:09;;;;;;;12.30;7.85;;;5.10;82.60;;;;;;5092613;28;20137;-73
2021/01/05 12:47:35;;;;;;;14.05;8.73;;;5.10;82.70;;;;;;5091194;28;20475;-73
2021/01/05 12:50:01;;;;;;;10.63;7.47;;;5.10;82.70;;;;;;5092787;28;20016;-73
2021/01/05 12:52:27;;;;;;;12.48;8.68;;;5.10;82.70;;;;;;5092443;28;20029;-73
2021/01/05 12:54:52;;;;;;;11.68;7.72;;;5.10;82.70;;;;;;5091293;28;20024;-74
2021/01/05 12:57:19;;;;;;;11.40;8.15;;;5.20;82.80;;;;;;5092507;28;20031;-73
2021/01/05 12:59:46;;;;;;;10.90;7.38;;;5.30;82.70;;;;;;5096096;28;20038;-74
2021/01/05 13:02:25;;;;;;;13.02;8.93;;;5.30;82.60;;;;;;5094745;28;20046;-74
2021/01/05 13:04:51;;;;;;;12.70;8.73;;;5.30;82.40;;;;;;5096061;28;20028;-74
2021/01/05 13:07:18;;;;;;;13.52;8.75;;;5.20;82.40;;;;;;5094713;28;20039;-74